LOT11 EPWA-KEWR
Flight info
| Callsign | LOT11 |
|---|---|
| Flight time | N/A |
| Altitude | 36000 |
| Route | LOLSI T174 INDIG L980 ADLIR DCT HLZ DCT ANDIK DCT RAVLO Y70 BODSO/N0490F380 Y70 OTBED DCT NISBI DCT DOPEK DCT ARTIX DCT MOGMO DCT MAMUL L60 PENIL M144 BAGSO DCT NEBIN/M085F390 DCT 5330N02000W 5230N03000W 51N040W 4930N05000W DCT IBERG/N0483F400 N364A TUSKY DCT BOS DCT NELIE FLOSI4 |
| Aircraft | B789/H-SDE1E2E3FGHIJ2J3J4J5M1RWXY/LB1D1 |
Departure
| Time | 2026-05-06 22:59 |
|---|---|
| Airport | Warsaw Chopin Airport (EPWA) |
Arrival
| Time | N/A |
|---|---|
| Airport | Newark Liberty International Airport (KEWR) |
| Time | Latitude | Longitude | Altitude | Speed | Heading |
|---|---|---|---|---|---|
| 2026-05-06 22:43 | 52.17331 | 20.96832 | 344 ft | 0 kts | 62° |
| 2026-05-06 22:52 | 52.17327 | 20.96822 | 344 ft | 2 kts | 62° |
| 2026-05-06 22:52 | 52.17319 | 20.96799 | 359 ft | 2 kts | 62° |
| 2026-05-06 22:52 | 52.17312 | 20.96775 | 355 ft | 2 kts | 62° |
| 2026-05-06 22:52 | 52.17304 | 20.96752 | 357 ft | 2 kts | 56° |
| 2026-05-06 22:53 | 52.17295 | 20.96729 | 356 ft | 2 kts | 54° |
| 2026-05-06 22:53 | 52.17287 | 20.96722 | 353 ft | 0 kts | 325° |
| 2026-05-06 22:55 | 52.17345 | 20.96673 | 351 ft | 20 kts | 333° |
| 2026-05-06 22:55 | 52.17457 | 20.96545 | 350 ft | 15 kts | 292° |
| 2026-05-06 22:55 | 52.17447 | 20.96427 | 351 ft | 9 kts | 262° |
| 2026-05-06 22:56 | 52.17461 | 20.96354 | 349 ft | 8 kts | 304° |
| 2026-05-06 22:56 | 52.17528 | 20.96275 | 353 ft | 16 kts | 334° |
| 2026-05-06 22:56 | 52.17654 | 20.96168 | 352 ft | 23 kts | 331° |
| 2026-05-06 22:56 | 52.17781 | 20.96045 | 351 ft | 20 kts | 317° |
| 2026-05-06 22:57 | 52.17861 | 20.95870 | 346 ft | 19 kts | 301° |
| 2026-05-06 22:57 | 52.17882 | 20.95708 | 353 ft | 12 kts | 253° |
| 2026-05-06 22:57 | 52.17839 | 20.95628 | 348 ft | 7 kts | 189° |
| 2026-05-06 22:57 | 52.17805 | 20.95640 | 351 ft | 4 kts | 158° |
| 2026-05-06 22:58 | 52.17724 | 20.95710 | 352 ft | 31 kts | 152° |
| 2026-05-06 22:58 | 52.17365 | 20.96021 | 353 ft | 86 kts | 152° |
| 2026-05-06 22:58 | 52.16674 | 20.96627 | 354 ft | 137 kts | 152° |
| 2026-05-06 22:58 | 52.15699 | 20.97487 | 374 ft | 177 kts | 151° |
| 2026-05-06 22:59 | 52.14608 | 20.98415 | 1008 ft | 178 kts | 154° |
| 2026-05-06 22:59 | 52.13471 | 20.99395 | 1457 ft | 196 kts | 154° |
| 2026-05-06 22:59 | 52.12238 | 21.00452 | 2110 ft | 203 kts | 154° |
| 2026-05-06 22:59 | 52.10954 | 21.01409 | 2829 ft | 201 kts | 165° |
| 2026-05-06 23:00 | 52.09574 | 21.01721 | 3408 ft | 208 kts | 184° |
| 2026-05-06 23:00 | 52.08262 | 21.00558 | 3567 ft | 233 kts | 229° |
| 2026-05-06 23:00 | 52.07502 | 20.98159 | 4072 ft | 251 kts | 255° |
| 2026-05-06 23:00 | 52.07543 | 20.95268 | 4824 ft | 260 kts | 273° |
| 2026-05-06 23:01 | 52.07793 | 20.92349 | 5673 ft | 261 kts | 275° |
| 2026-05-06 23:01 | 52.08103 | 20.89429 | 6550 ft | 263 kts | 274° |
| 2026-05-06 23:01 | 52.08351 | 20.86474 | 7330 ft | 264 kts | 270° |
| 2026-05-06 23:01 | 52.08533 | 20.83473 | 8089 ft | 268 kts | 270° |
| 2026-05-06 23:02 | 52.08741 | 20.80465 | 8843 ft | 272 kts | 271° |
| 2026-05-06 23:02 | 52.08975 | 20.77402 | 9627 ft | 274 kts | 271° |
| 2026-05-06 23:02 | 52.09209 | 20.74281 | 10237 ft | 282 kts | 271° |
| 2026-05-06 23:02 | 52.09444 | 20.70959 | 10297 ft | 310 kts | 271° |
| 2026-05-06 23:03 | 52.09703 | 20.67329 | 10338 ft | 336 kts | 272° |
| 2026-05-06 23:03 | 52.09990 | 20.63430 | 10503 ft | 356 kts | 272° |
| 2026-05-06 23:03 | 52.10281 | 20.59511 | 11273 ft | 356 kts | 272° |
| 2026-05-06 23:03 | 52.10570 | 20.55493 | 11917 ft | 360 kts | 272° |
| 2026-05-06 23:04 | 52.10794 | 20.52310 | 12440 ft | 362 kts | 272° |
| 2026-05-06 23:04 | 52.10985 | 20.49609 | 12887 ft | 364 kts | 272° |
| 2026-05-06 23:04 | 52.11258 | 20.45759 | 13489 ft | 367 kts | 272° |
| 2026-05-06 23:04 | 52.11552 | 20.41614 | 14082 ft | 370 kts | 272° |
| 2026-05-06 23:05 | 52.11941 | 20.36074 | 14890 ft | 373 kts | 272° |
| 2026-05-06 23:05 | 52.12234 | 20.31857 | 15461 ft | 376 kts | 272° |
| 2026-05-06 23:05 | 52.12429 | 20.29038 | 15836 ft | 378 kts | 272° |
| 2026-05-06 23:05 | 52.12724 | 20.24773 | 16402 ft | 380 kts | 272° |
| 2026-05-06 23:06 | 52.13020 | 20.20475 | 16951 ft | 382 kts | 272° |
| 2026-05-06 23:06 | 52.13315 | 20.16143 | 17498 ft | 385 kts | 272° |
| 2026-05-06 23:06 | 52.13611 | 20.11794 | 18026 ft | 388 kts | 272° |
| 2026-05-06 23:06 | 52.13908 | 20.07406 | 18504 ft | 390 kts | 272° |
| 2026-05-06 23:07 | 52.14204 | 20.02992 | 18955 ft | 392 kts | 272° |
| 2026-05-06 23:07 | 52.14496 | 19.98625 | 19385 ft | 395 kts | 272° |
| 2026-05-06 23:07 | 52.14791 | 19.94176 | 19826 ft | 397 kts | 272° |
| 2026-05-06 23:07 | 52.15087 | 19.89692 | 20260 ft | 399 kts | 272° |
| 2026-05-06 23:08 | 52.15383 | 19.85185 | 20671 ft | 401 kts | 272° |
| 2026-05-06 23:08 | 52.15678 | 19.80670 | 21079 ft | 403 kts | 272° |
| 2026-05-06 23:08 | 52.15974 | 19.76111 | 21471 ft | 405 kts | 272° |
| 2026-05-06 23:08 | 52.16269 | 19.71534 | 21866 ft | 407 kts | 272° |
| 2026-05-06 23:09 | 52.16564 | 19.66935 | 22233 ft | 409 kts | 272° |
| 2026-05-06 23:09 | 52.16858 | 19.62311 | 22602 ft | 411 kts | 272° |
| 2026-05-06 23:09 | 52.17153 | 19.57653 | 22958 ft | 413 kts | 272° |
| 2026-05-06 23:09 | 52.17443 | 19.53045 | 23318 ft | 415 kts | 272° |
| 2026-05-06 23:10 | 52.17737 | 19.48341 | 23612 ft | 417 kts | 272° |
| 2026-05-06 23:10 | 52.18029 | 19.43633 | 23895 ft | 418 kts | 272° |
| 2026-05-06 23:10 | 52.18321 | 19.38901 | 24155 ft | 420 kts | 271° |
| 2026-05-06 23:10 | 52.18611 | 19.34152 | 24416 ft | 422 kts | 271° |
| 2026-05-06 23:11 | 52.18902 | 19.29380 | 24671 ft | 424 kts | 271° |
| 2026-05-06 23:11 | 52.19187 | 19.24655 | 24922 ft | 426 kts | 271° |
| 2026-05-06 23:11 | 52.19477 | 19.19829 | 25167 ft | 427 kts | 271° |
| 2026-05-06 23:11 | 52.19765 | 19.14993 | 25413 ft | 429 kts | 271° |
| 2026-05-06 23:12 | 52.20052 | 19.10145 | 25664 ft | 431 kts | 271° |
| 2026-05-06 23:12 | 52.20339 | 19.05261 | 25919 ft | 433 kts | 271° |
| 2026-05-06 23:12 | 52.20625 | 19.00363 | 26156 ft | 434 kts | 271° |
| 2026-05-06 23:12 | 52.20907 | 18.95454 | 26269 ft | 437 kts | 273° |
| 2026-05-06 23:13 | 52.21189 | 18.90541 | 26351 ft | 443 kts | 273° |
| 2026-05-06 23:13 | 52.21479 | 18.85544 | 26641 ft | 443 kts | 273° |
| 2026-05-06 23:13 | 52.21763 | 18.80525 | 26895 ft | 445 kts | 273° |
| 2026-05-06 23:13 | 52.22045 | 18.75484 | 27149 ft | 447 kts | 273° |
| 2026-05-06 23:14 | 52.22327 | 18.70423 | 27396 ft | 448 kts | 273° |
| 2026-05-06 23:14 | 52.22609 | 18.65347 | 27665 ft | 450 kts | 273° |
| 2026-05-06 23:14 | 52.22889 | 18.60241 | 27916 ft | 452 kts | 273° |
| 2026-05-06 23:14 | 52.23164 | 18.55195 | 28168 ft | 453 kts | 273° |
| 2026-05-06 23:15 | 52.23444 | 18.50002 | 28432 ft | 455 kts | 273° |
| 2026-05-06 23:15 | 52.23717 | 18.44915 | 28661 ft | 457 kts | 273° |
| 2026-05-06 23:15 | 52.23992 | 18.39748 | 28931 ft | 458 kts | 273° |
| 2026-05-06 23:15 | 52.24265 | 18.34556 | 29202 ft | 460 kts | 273° |
| 2026-05-06 23:16 | 52.24538 | 18.29345 | 29431 ft | 462 kts | 272° |
| 2026-05-06 23:16 | 52.24809 | 18.24114 | 29706 ft | 463 kts | 272° |
| 2026-05-06 23:16 | 52.25078 | 18.18868 | 29950 ft | 465 kts | 272° |
| 2026-05-06 23:16 | 52.25344 | 18.13644 | 30177 ft | 466 kts | 272° |
| 2026-05-06 23:17 | 52.25611 | 18.08365 | 30436 ft | 467 kts | 272° |
| 2026-05-06 23:17 | 52.25876 | 18.03062 | 30686 ft | 468 kts | 272° |
| 2026-05-06 23:17 | 52.26139 | 17.97761 | 30918 ft | 469 kts | 272° |
| 2026-05-06 23:17 | 52.26400 | 17.92442 | 31165 ft | 470 kts | 272° |
| 2026-05-06 23:18 | 52.26660 | 17.87107 | 31400 ft | 471 kts | 272° |
| 2026-05-06 23:18 | 52.26916 | 17.81780 | 31768 ft | 469 kts | 272° |
| 2026-05-06 23:18 | 52.27170 | 17.76470 | 32149 ft | 467 kts | 272° |
| 2026-05-06 23:18 | 52.27420 | 17.71179 | 32538 ft | 465 kts | 272° |
| 2026-05-06 23:19 | 52.27666 | 17.65927 | 32941 ft | 463 kts | 272° |
| 2026-05-06 23:19 | 52.27906 | 17.60765 | 33342 ft | 461 kts | 272° |
| 2026-05-06 23:19 | 52.28145 | 17.55561 | 33722 ft | 459 kts | 272° |
| 2026-05-06 23:19 | 52.28381 | 17.50370 | 34056 ft | 458 kts | 272° |
| 2026-05-06 23:20 | 52.28615 | 17.45181 | 34333 ft | 457 kts | 272° |
| 2026-05-06 23:20 | 52.28846 | 17.40001 | 34595 ft | 457 kts | 272° |
| 2026-05-06 23:20 | 52.29074 | 17.34838 | 34865 ft | 457 kts | 272° |
| 2026-05-06 23:20 | 52.29301 | 17.29643 | 35134 ft | 456 kts | 272° |
| 2026-05-06 23:21 | 52.29525 | 17.24479 | 35393 ft | 456 kts | 272° |
| 2026-05-06 23:21 | 52.29746 | 17.19303 | 35615 ft | 457 kts | 272° |
| 2026-05-06 23:21 | 52.29966 | 17.14121 | 35807 ft | 458 kts | 271° |
| 2026-05-06 23:22 | 52.30402 | 17.03672 | 35846 ft | 461 kts | 271° |
| 2026-05-06 23:22 | 52.30826 | 16.93329 | 35848 ft | 458 kts | 271° |
| 2026-05-06 23:23 | 52.31240 | 16.82945 | 35851 ft | 458 kts | 271° |
| 2026-05-06 23:23 | 52.31647 | 16.72556 | 35848 ft | 457 kts | 271° |
| 2026-05-06 23:24 | 52.32042 | 16.62200 | 35851 ft | 457 kts | 271° |
| 2026-05-06 23:24 | 52.32430 | 16.51814 | 35851 ft | 458 kts | 271° |
| 2026-05-06 23:25 | 52.32808 | 16.41425 | 35860 ft | 458 kts | 270° |
| 2026-05-06 23:25 | 52.33177 | 16.31071 | 35864 ft | 458 kts | 270° |
| 2026-05-06 23:26 | 52.33538 | 16.20653 | 35859 ft | 457 kts | 270° |
| 2026-05-06 23:26 | 52.33889 | 16.10260 | 35858 ft | 457 kts | 270° |
| 2026-05-06 23:27 | 52.34230 | 15.99906 | 35861 ft | 458 kts | 270° |
| 2026-05-06 23:27 | 52.34563 | 15.89506 | 35864 ft | 458 kts | 270° |
| 2026-05-06 23:28 | 52.34887 | 15.79094 | 35869 ft | 458 kts | 270° |
| 2026-05-06 23:28 | 52.35203 | 15.68687 | 35875 ft | 458 kts | 270° |
| 2026-05-06 23:29 | 52.35509 | 15.58270 | 35871 ft | 458 kts | 269° |
| 2026-05-06 23:29 | 52.35804 | 15.47920 | 35866 ft | 459 kts | 269° |
| 2026-05-06 23:30 | 52.36091 | 15.37505 | 35867 ft | 458 kts | 269° |
| 2026-05-06 23:30 | 52.36370 | 15.27078 | 35864 ft | 459 kts | 269° |
| 2026-05-06 23:31 | 52.36638 | 15.16708 | 35862 ft | 459 kts | 269° |
| 2026-05-06 23:31 | 52.36899 | 15.06266 | 35866 ft | 460 kts | 269° |
| 2026-05-06 23:32 | 52.37152 | 14.95796 | 35873 ft | 460 kts | 268° |
| 2026-05-06 23:32 | 52.37394 | 14.85351 | 35871 ft | 459 kts | 268° |
| 2026-05-06 23:33 | 52.37627 | 14.74901 | 35869 ft | 460 kts | 268° |
| 2026-05-06 23:33 | 52.37852 | 14.64449 | 35865 ft | 460 kts | 268° |
| 2026-05-06 23:34 | 52.38171 | 14.54059 | 35861 ft | 462 kts | 270° |
| 2026-05-06 23:34 | 52.38575 | 14.43561 | 35875 ft | 462 kts | 269° |
| 2026-05-06 23:35 | 52.38998 | 14.33051 | 35878 ft | 463 kts | 270° |
| 2026-05-06 23:35 | 52.39401 | 14.22536 | 35877 ft | 463 kts | 269° |
| 2026-05-06 23:36 | 52.39795 | 14.12071 | 35874 ft | 464 kts | 269° |
| 2026-05-06 23:36 | 52.39991 | 14.01548 | 35873 ft | 462 kts | 266° |
| 2026-05-06 23:37 | 52.40019 | 13.90999 | 35885 ft | 463 kts | 266° |
| 2026-05-06 23:37 | 52.40029 | 13.80466 | 35888 ft | 463 kts | 266° |
| 2026-05-06 23:38 | 52.40033 | 13.70001 | 35889 ft | 462 kts | 266° |
| 2026-05-06 23:38 | 52.40026 | 13.59475 | 35890 ft | 462 kts | 266° |
| 2026-05-06 23:39 | 52.40006 | 13.48958 | 35884 ft | 462 kts | 266° |
| 2026-05-06 23:39 | 52.39979 | 13.38442 | 35897 ft | 462 kts | 266° |
| 2026-05-06 23:40 | 52.39942 | 13.28037 | 35883 ft | 462 kts | 266° |
| 2026-05-06 23:40 | 52.39895 | 13.17519 | 35889 ft | 462 kts | 266° |
| 2026-05-06 23:41 | 52.39839 | 13.06998 | 35888 ft | 462 kts | 266° |
| 2026-05-06 23:41 | 52.39773 | 12.96455 | 35884 ft | 462 kts | 266° |
| 2026-05-06 23:42 | 52.39699 | 12.85999 | 35886 ft | 463 kts | 266° |
| 2026-05-06 23:42 | 52.39615 | 12.75478 | 35889 ft | 463 kts | 266° |
| 2026-05-06 23:43 | 52.39521 | 12.64922 | 35888 ft | 463 kts | 266° |
| 2026-05-06 23:43 | 52.39418 | 12.54375 | 35893 ft | 464 kts | 266° |
| 2026-05-06 23:44 | 52.39306 | 12.43809 | 35892 ft | 464 kts | 266° |
| 2026-05-06 23:44 | 52.39184 | 12.33297 | 35891 ft | 465 kts | 266° |
| 2026-05-06 23:45 | 52.39052 | 12.22705 | 35893 ft | 465 kts | 266° |
| 2026-05-06 23:45 | 52.38911 | 12.12095 | 35892 ft | 466 kts | 265° |
| 2026-05-06 23:46 | 52.38761 | 12.01556 | 35892 ft | 466 kts | 265° |
| 2026-05-06 23:46 | 52.38600 | 11.90950 | 35889 ft | 466 kts | 265° |
| 2026-05-06 23:47 | 52.38430 | 11.80330 | 35888 ft | 467 kts | 265° |
| 2026-05-06 23:47 | 52.38251 | 11.69700 | 35890 ft | 467 kts | 265° |
| 2026-05-06 23:48 | 52.38062 | 11.59135 | 35886 ft | 468 kts | 265° |
| 2026-05-06 23:48 | 52.37863 | 11.48471 | 35884 ft | 469 kts | 265° |
| 2026-05-06 23:49 | 52.37654 | 11.37799 | 35883 ft | 470 kts | 265° |
| 2026-05-06 23:49 | 52.37434 | 11.27108 | 35880 ft | 470 kts | 265° |
| 2026-05-06 23:50 | 52.37205 | 11.16414 | 35885 ft | 471 kts | 265° |
| 2026-05-06 23:50 | 52.36844 | 11.00402 | 35884 ft | 471 kts | 265° |
| 2026-05-06 23:51 | 52.36761 | 10.96853 | 35887 ft | 472 kts | 265° |